Time;durP1;ratioP1;P1;durP2;ratioP2;P2;SDS_P1;SDS_P2;PMS_P1;PMS_P2;Temp;Humidity;BMP_temperature;BMP_pressure;BME280_temperature;BME280_humidity;BME280_pressure;Samples;Min_cycle;Max_cycle;Signal;HPM_P1;HPM_P2
2023/02/11 00:00:50;;;;;;;25.48;5.43;;;7.20;99.90;;;;;;5009330;28;20104;-66
2023/02/11 00:03:16;;;;;;;19.13;5.20;;;7.20;99.90;;;;;;5008453;28;20490;-65
2023/02/11 00:05:42;;;;;;;19.48;5.72;;;7.20;99.90;;;;;;5008981;28;20045;-65
2023/02/11 00:08:07;;;;;;;19.77;5.38;;;7.20;99.90;;;;;;5007923;28;20069;-65
2023/02/11 00:10:33;;;;;;;23.55;5.68;;;7.20;99.90;;;;;;5009203;28;20042;-65
2023/02/11 00:12:59;;;;;;;18.75;5.47;;;7.20;99.90;;;;;;5009093;28;20485;-65
2023/02/11 00:15:24;;;;;;;20.10;5.82;;;7.20;99.90;;;;;;5009010;28;20042;-65
2023/02/11 00:17:50;;;;;;;23.13;5.40;;;7.20;99.90;;;;;;5009204;28;20468;-65
2023/02/11 00:20:16;;;;;;;23.48;6.10;;;7.20;99.90;;;;;;5009578;28;20042;-65
2023/02/11 00:22:42;;;;;;;21.67;5.88;;;7.20;99.90;;;;;;4994338;28;20050;-65
2023/02/11 00:25:08;;;;;;;20.63;5.35;;;7.20;99.90;;;;;;4994346;28;20104;-65
2023/02/11 00:27:35;;;;;;;24.83;6.00;;;7.20;99.90;;;;;;5012679;28;20045;-65
2023/02/11 00:30:01;;;;;;;19.85;5.80;;;7.20;99.90;;;;;;5012093;28;20100;-65
2023/02/11 00:32:27;;;;;;;21.15;6.30;;;7.20;99.90;;;;;;5012206;28;20133;-65
2023/02/11 00:34:54;;;;;;;16.33;5.15;;;7.20;99.90;;;;;;5011752;28;20125;-65
2023/02/11 00:37:20;;;;;;;25.52;6.40;;;7.20;99.90;;;;;;5012588;28;20357;-64
2023/02/11 00:39:46;;;;;;;19.55;5.43;;;7.20;99.90;;;;;;5011651;28;20414;-65
2023/02/11 00:42:13;;;;;;;23.48;6.00;;;7.20;99.90;;;;;;4994429;28;20109;-64
2023/02/11 00:44:39;;;;;;;19.83;5.35;;;7.10;99.90;;;;;;5011861;28;20038;-64
2023/02/11 00:47:05;;;;;;;22.13;6.25;;;7.10;99.90;;;;;;5012252;28;20550;-65
2023/02/11 00:49:31;;;;;;;18.85;5.82;;;7.10;99.90;;;;;;5011987;28;20103;-64
2023/02/11 00:51:56;;;;;;;21.80;6.07;;;7.00;99.90;;;;;;5011707;28;20054;-64
2023/02/11 00:54:22;;;;;;;19.80;5.85;;;7.00;99.90;;;;;;5011448;28;20049;-64
2023/02/11 00:56:48;;;;;;;22.20;5.40;;;7.00;99.90;;;;;;5012002;28;20042;-64
2023/02/11 00:59:13;;;;;;;16.58;5.18;;;7.00;99.90;;;;;;5012007;28;20100;-64
2023/02/11 01:01:39;;;;;;;21.50;6.65;;;6.90;99.90;;;;;;5011329;28;20478;-64
2023/02/11 01:04:05;;;;;;;21.23;5.70;;;6.90;99.90;;;;;;4994462;28;20128;-65
2023/02/11 01:06:30;;;;;;;21.90;5.57;;;6.80;99.90;;;;;;5010971;28;20533;-64
2023/02/11 01:08:56;;;;;;;20.80;6.03;;;6.80;99.90;;;;;;5011489;28;20113;-64
2023/02/11 01:11:22;;;;;;;21.23;5.88;;;6.80;99.90;;;;;;5007501;28;20529;-65
2023/02/11 01:13:49;;;;;;;24.35;6.63;;;6.70;99.90;;;;;;5011390;28;20041;-65
2023/02/11 01:16:15;;;;;;;20.58;6.55;;;6.70;99.90;;;;;;4994118;28;20044;-65
2023/02/11 01:18:43;;;;;;;22.85;6.65;;;6.60;99.90;;;;;;4993934;28;20087;-65
2023/02/11 01:21:09;;;;;;;20.05;5.82;;;6.50;99.90;;;;;;5010817;28;20126;-65
2023/02/11 01:23:35;;;;;;;18.10;6.00;;;6.50;99.90;;;;;;5010972;28;20497;-66
2023/02/11 01:26:00;;;;;;;23.10;6.78;;;6.50;99.90;;;;;;5010751;28;20038;-65
2023/02/11 01:28:28;;;;;;;24.20;6.45;;;6.50;99.90;;;;;;5011207;28;20528;-66
2023/02/11 01:30:54;;;;;;;23.08;6.57;;;6.40;99.90;;;;;;4992724;28;20050;-65
2023/02/11 01:33:21;;;;;;;22.63;7.10;;;6.40;99.90;;;;;;5010932;28;20033;-66
2023/02/11 01:35:47;;;;;;;20.48;6.65;;;6.40;99.90;;;;;;5010205;28;20045;-65
2023/02/11 01:38:22;;;;;;;19.58;6.63;;;6.50;99.90;;;;;;4992926;28;20044;-65
2023/02/11 01:41:00;;;;;;;21.35;6.40;;;6.50;99.90;;;;;;5009890;28;20070;-65
2023/02/11 01:43:29;;;;;;;19.48;6.40;;;6.50;99.90;;;;;;5010867;28;20445;-65
2023/02/11 01:46:11;;;;;;;22.58;6.57;;;6.50;99.90;;;;;;5010766;28;20081;-65
2023/02/11 01:48:41;;;;;;;19.55;7.38;;;6.50;99.90;;;;;;5010976;28;20053;-65
2023/02/11 01:51:19;;;;;;;19.48;6.15;;;6.50;99.90;;;;;;5007076;28;20053;-65
2023/02/11 01:59:32;;;;;;;21.10;7.43;;;6.60;99.90;;;;;;4991609;28;20044;-65
2023/02/11 02:02:03;;;;;;;22.67;7.15;;;6.60;99.90;;;;;;5010288;28;20030;-65
2023/02/11 02:04:37;;;;;;;24.27;7.20;;;6.60;99.90;;;;;;5010668;28;20535;-64
2023/02/11 02:07:08;;;;;;;23.38;7.50;;;6.70;99.90;;;;;;5007592;28;20100;-65
2023/02/11 02:09:40;;;;;;;16.67;7.38;;;6.70;99.90;;;;;;5007967;28;20490;-65
2023/02/11 02:12:06;;;;;;;28.83;8.40;;;6.70;99.90;;;;;;4987594;28;20050;-65
2023/02/11 02:14:32;;;;;;;21.80;8.43;;;6.70;99.90;;;;;;5010776;28;20369;-65
2023/02/11 02:16:57;;;;;;;24.63;8.55;;;6.70;99.90;;;;;;5010392;28;20070;-66
2023/02/11 02:19:35;;;;;;;24.85;8.70;;;6.70;99.90;;;;;;5009964;28;20049;-65
2023/02/11 02:22:35;;;;;;;21.50;8.05;;;6.70;99.90;;;;;;4992538;28;20473;-65
2023/02/11 02:25:16;;;;;;;23.52;9.02;;;6.70;99.90;;;;;;4988998;28;20054;-65
2023/02/11 02:27:59;;;;;;;23.58;8.85;;;6.70;99.90;;;;;;5009904;28;20045;-66
2023/02/11 02:30:46;;;;;;;23.83;9.25;;;6.70;99.90;;;;;;5010423;28;20072;-65
2023/02/11 02:33:20;;;;;;;25.25;9.20;;;6.70;99.90;;;;;;5010281;28;20034;-66
2023/02/11 02:36:01;;;;;;;24.60;9.35;;;6.80;99.90;;;;;;5006459;28;20121;-65
2023/02/11 02:38:39;;;;;;;26.92;9.45;;;6.70;99.90;;;;;;5009775;28;20046;-65
2023/02/11 02:41:05;;;;;;;25.70;8.75;;;6.80;99.90;;;;;;4984112;28;20037;-67
2023/02/11 02:43:32;;;;;;;20.38;9.35;;;6.80;99.90;;;;;;5009814;28;20060;-67
2023/02/11 02:46:18;;;;;;;28.23;10.90;;;6.80;99.90;;;;;;5010271;28;20088;-66
2023/02/11 02:48:45;;;;;;;22.35;9.68;;;6.80;99.90;;;;;;5008165;28;20510;-67
2023/02/11 02:51:29;;;;;;;24.58;10.65;;;6.80;99.90;;;;;;5009545;28;20117;-67
2023/02/11 02:54:23;;;;;;;25.88;10.85;;;6.80;99.90;;;;;;5008570;28;20053;-66
2023/02/11 02:57:09;;;;;;;26.77;10.60;;;6.90;99.90;;;;;;5008543;28;20034;-65
2023/02/11 03:00:02;;;;;;;23.38;10.30;;;6.80;99.90;;;;;;5008244;28;20042;-65
2023/02/11 03:02:37;;;;;;;27.30;10.18;;;6.80;99.90;;;;;;4991767;28;20046;-65
2023/02/11 03:05:11;;;;;;;;;;;6.90;99.90;;;;;;4988141;28;20486;-66
2023/02/11 03:07:52;;;;;;;25.53;11.20;;;6.90;99.90;;;;;;4992165;28;19925;-66
2023/02/11 03:10:23;;;;;;;25.75;11.25;;;6.80;99.90;;;;;;4992309;28;20360;-66
2023/02/11 03:12:52;;;;;;;27.27;10.60;;;6.90;99.90;;;;;;5009813;28;20041;-65
2023/02/11 03:15:20;;;;;;;27.17;11.75;;;7.00;99.90;;;;;;5009592;28;20113;-66
2023/02/11 03:17:49;;;;;;;27.08;11.57;;;7.00;99.90;;;;;;4991784;28;20133;-66
2023/02/11 03:20:17;;;;;;;27.98;12.52;;;6.90;99.90;;;;;;5009265;28;20115;-66
2023/02/11 03:23:01;;;;;;;23.38;12.40;;;7.00;99.90;;;;;;4991185;28;20062;-66
2023/02/11 03:25:36;;;;;;;25.45;12.65;;;7.00;99.90;;;;;;4989119;28;20271;-66
2023/02/11 03:28:26;;;;;;;26.02;13.00;;;7.00;99.90;;;;;;5009606;28;20494;-66
2023/02/11 03:31:01;;;;;;;29.52;13.32;;;7.00;99.90;;;;;;5009392;28;20529;-66
2023/02/11 03:33:45;;;;;;;22.83;13.50;;;7.00;99.90;;;;;;5007609;28;20104;-66
2023/02/11 03:36:22;;;;;;;29.33;14.68;;;7.10;99.90;;;;;;5008498;28;20042;-66
2023/02/11 03:38:50;;;;;;;27.13;14.95;;;7.10;99.90;;;;;;5008973;28;20136;-66
2023/02/11 03:41:22;;;;;;;27.30;14.45;;;7.10;99.90;;;;;;5009190;28;20030;-66
2023/02/11 03:43:52;;;;;;;27.00;14.10;;;7.10;99.90;;;;;;4991550;28;20049;-66
2023/02/11 03:46:23;;;;;;;27.15;15.55;;;7.10;99.90;;;;;;5009082;28;20117;-66
2023/02/11 03:48:54;;;;;;;25.55;15.32;;;7.10;99.90;;;;;;5009287;28;20045;-66
2023/02/11 03:51:22;;;;;;;27.58;14.63;;;7.10;99.90;;;;;;5007844;28;20054;-66
2023/02/11 03:53:51;;;;;;;32.00;16.02;;;7.20;99.90;;;;;;5009245;28;20046;-66
2023/02/11 03:56:20;;;;;;;28.65;15.95;;;7.10;99.90;;;;;;5012986;28;20523;-67
2023/02/11 03:58:47;;;;;;;28.13;15.73;;;7.20;99.90;;;;;;5012047;28;20038;-66
2023/02/11 04:01:13;;;;;;;32.08;16.33;;;7.20;99.90;;;;;;5013153;28;20580;-66
2023/02/11 04:03:39;;;;;;;32.85;15.38;;;7.20;99.90;;;;;;5013807;28;20132;-66
2023/02/11 04:06:05;;;;;;;30.08;15.55;;;7.20;99.90;;;;;;5012673;28;20049;-66
2023/02/11 04:08:31;;;;;;;29.23;16.73;;;7.10;99.90;;;;;;4994723;28;20038;-66
2023/02/11 04:10:57;;;;;;;31.23;16.75;;;7.10;99.90;;;;;;4994991;28;20092;-66
2023/02/11 04:13:23;;;;;;;32.78;16.75;;;7.10;99.90;;;;;;5012454;28;20033;-66
2023/02/11 04:15:49;;;;;;;24.13;14.30;;;7.10;99.90;;;;;;5012847;28;20124;-66
2023/02/11 04:18:15;;;;;;;25.90;15.75;;;7.10;99.90;;;;;;5012364;28;20084;-66
2023/02/11 04:20:41;;;;;;;28.13;16.17;;;7.10;99.90;;;;;;5005943;28;20038;-66
2023/02/11 04:23:07;;;;;;;31.52;16.40;;;7.00;99.90;;;;;;5010776;28;20050;-66
2023/02/11 04:25:32;;;;;;;28.83;15.73;;;7.00;99.90;;;;;;5012698;28;20186;-66
2023/02/11 04:27:58;;;;;;;30.60;16.65;;;7.00;99.90;;;;;;4994261;28;20034;-66
2023/02/11 04:30:24;;;;;;;32.28;17.83;;;7.00;99.90;;;;;;5012608;28;20046;-66
2023/02/11 04:32:49;;;;;;;32.20;16.52;;;7.00;99.90;;;;;;5012209;28;20038;-66
2023/02/11 04:35:15;;;;;;;37.03;17.65;;;7.00;99.90;;;;;;5012005;28;20050;-66
2023/02/11 04:37:41;;;;;;;33.38;17.85;;;7.00;99.90;;;;;;5011996;28;20458;-66
2023/02/11 04:40:07;;;;;;;29.55;16.88;;;7.00;99.90;;;;;;5010223;28;20103;-66
2023/02/11 04:42:33;;;;;;;33.03;17.30;;;7.00;99.90;;;;;;4994564;28;20479;-66
2023/02/11 04:44:59;;;;;;;34.20;17.85;;;7.00;99.90;;;;;;5012088;28;20037;-66
2023/02/11 04:47:24;;;;;;;29.27;17.52;;;7.00;99.90;;;;;;5012129;28;20116;-66
2023/02/11 04:49:50;;;;;;;33.38;18.08;;;7.00;99.90;;;;;;4993769;28;20473;-66
2023/02/11 04:52:16;;;;;;;31.55;17.60;;;7.00;99.90;;;;;;5011913;28;20089;-66
2023/02/11 04:54:41;;;;;;;33.97;18.33;;;7.00;99.90;;;;;;4993574;28;20077;-66
2023/02/11 04:57:07;;;;;;;31.80;17.63;;;7.00;99.90;;;;;;5012118;28;20121;-65
2023/02/11 04:59:33;;;;;;;37.72;19.27;;;7.00;99.90;;;;;;5011642;28;20037;-66
2023/02/11 05:01:59;;;;;;;31.55;18.35;;;7.00;99.90;;;;;;5011123;28;20052;-65
2023/02/11 05:04:24;;;;;;;35.65;18.70;;;7.00;99.90;;;;;;5003091;28;20038;-66
2023/02/11 05:06:50;;;;;;;29.77;17.55;;;7.00;99.90;;;;;;5009187;28;20370;-65
2023/02/11 05:09:16;;;;;;;32.33;18.40;;;6.90;99.90;;;;;;5010675;28;20038;-66
2023/02/11 05:11:42;;;;;;;35.35;19.35;;;6.90;99.90;;;;;;5011771;28;20104;-66
2023/02/11 05:14:08;;;;;;;34.63;18.35;;;6.90;99.90;;;;;;4993470;28;20045;-66
2023/02/11 05:16:34;;;;;;;40.92;19.75;;;6.90;99.90;;;;;;4991162;28;20060;-65
2023/02/11 05:19:00;;;;;;;33.40;18.70;;;6.90;99.90;;;;;;5011361;28;20282;-66
2023/02/11 05:21:25;;;;;;;32.47;18.90;;;6.90;99.90;;;;;;5011242;28;20042;-66
2023/02/11 05:23:51;;;;;;;34.47;20.38;;;6.90;99.90;;;;;;5010652;28;20042;-65
2023/02/11 05:26:17;;;;;;;34.65;20.40;;;6.90;99.90;;;;;;5011521;28;20042;-65
2023/02/11 05:28:43;;;;;;;36.00;19.63;;;6.90;99.90;;;;;;5011448;28;20180;-66
2023/02/11 05:31:10;;;;;;;35.10;19.88;;;6.90;99.90;;;;;;5011107;28;20468;-65
2023/02/11 05:33:36;;;;;;;37.15;20.20;;;6.90;99.90;;;;;;4977026;28;20710;-66
2023/02/11 05:36:05;;;;;;;30.45;19.27;;;6.90;99.90;;;;;;5010796;28;20103;-66
2023/02/11 05:38:31;;;;;;;35.05;19.50;;;6.90;99.90;;;;;;5010656;28;20065;-66
2023/02/11 05:40:57;;;;;;;37.42;20.63;;;6.90;99.90;;;;;;5011031;28;20049;-65
2023/02/11 05:43:23;;;;;;;37.30;20.77;;;6.90;99.90;;;;;;4994256;28;20406;-66
2023/02/11 05:45:48;;;;;;;35.35;20.88;;;6.90;99.90;;;;;;5011558;28;20117;-66
2023/02/11 05:48:14;;;;;;;36.15;19.95;;;6.90;99.90;;;;;;5000850;28;20139;-66
2023/02/11 05:50:40;;;;;;;42.40;20.90;;;6.90;99.90;;;;;;5010763;28;20129;-65
2023/02/11 05:53:06;;;;;;;31.63;20.98;;;6.90;99.90;;;;;;4993434;28;20425;-65
2023/02/11 05:55:32;;;;;;;37.72;21.30;;;6.90;99.90;;;;;;4993558;28;20065;-65
2023/02/11 05:57:58;;;;;;;37.58;21.05;;;7.00;99.90;;;;;;5011506;28;20425;-66
2023/02/11 06:00:24;;;;;;;38.50;21.60;;;7.00;99.90;;;;;;5010677;28;20096;-66
2023/02/11 06:02:50;;;;;;;40.20;21.67;;;7.00;99.90;;;;;;5010626;28;20042;-66
2023/02/11 06:05:16;;;;;;;42.35;22.23;;;7.00;99.90;;;;;;4992422;28;20042;-66
2023/02/11 06:07:42;;;;;;;37.35;22.27;;;7.00;99.90;;;;;;4992731;28;20064;-66
2023/02/11 06:10:08;;;;;;;36.63;24.13;;;7.00;99.90;;;;;;5010218;28;20132;-66
2023/02/11 06:12:35;;;;;;;45.03;23.70;;;7.00;99.90;;;;;;5010670;28;20053;-65
2023/02/11 06:15:01;;;;;;;36.38;22.92;;;7.00;99.90;;;;;;4992518;28;20088;-66
2023/02/11 06:17:31;;;;;;;42.83;24.60;;;7.00;99.90;;;;;;5008453;28;20116;-66
2023/02/11 06:19:57;;;;;;;38.58;24.02;;;7.00;99.90;;;;;;5007630;28;20407;-66
2023/02/11 06:22:23;;;;;;;45.38;25.63;;;7.00;99.90;;;;;;4992894;28;20042;-66
2023/02/11 06:24:48;;;;;;;42.28;24.70;;;7.00;99.90;;;;;;5009788;28;20045;-66
2023/02/11 06:27:14;;;;;;;44.58;27.02;;;7.00;99.90;;;;;;5010408;28;20052;-66
2023/02/11 06:29:40;;;;;;;44.50;25.88;;;7.00;99.90;;;;;;5010641;28;20081;-66
2023/02/11 06:32:06;;;;;;;45.47;26.73;;;7.00;99.90;;;;;;4984579;28;20557;-66
2023/02/11 06:34:31;;;;;;;44.33;26.50;;;7.00;99.90;;;;;;5009913;28;20561;-66
2023/02/11 06:36:57;;;;;;;41.20;27.35;;;7.00;99.90;;;;;;4992639;28;20100;-66
2023/02/11 06:39:23;;;;;;;43.53;27.33;;;7.00;99.90;;;;;;5009850;28;20032;-66
2023/02/11 06:41:48;;;;;;;44.55;27.23;;;7.00;99.90;;;;;;4992127;28;20049;-66
2023/02/11 06:44:14;;;;;;;47.60;26.50;;;7.00;99.90;;;;;;5009942;28;20034;-66
2023/02/11 06:46:40;;;;;;;46.72;27.20;;;7.00;99.90;;;;;;5009880;28;20168;-66
2023/02/11 06:49:05;;;;;;;45.58;26.40;;;7.10;99.90;;;;;;5010407;28;20038;-66
2023/02/11 06:51:31;;;;;;;53.60;29.92;;;7.00;99.90;;;;;;5009143;28;20053;-66
2023/02/11 06:53:57;;;;;;;45.55;26.95;;;7.00;99.90;;;;;;5009696;28;20054;-66
2023/02/11 06:56:26;;;;;;;52.65;26.80;;;7.10;99.90;;;;;;5009853;28;20138;-66
2023/02/11 06:58:54;;;;;;;48.22;26.52;;;7.10;99.90;;;;;;5009906;28;20045;-66
2023/02/11 07:01:21;;;;;;;42.13;25.73;;;7.10;99.90;;;;;;5009378;28;20151;-66
2023/02/11 07:03:46;;;;;;;46.92;26.35;;;7.10;99.90;;;;;;5010065;28;20104;-66
2023/02/11 07:06:18;;;;;;;43.47;27.05;;;7.10;99.90;;;;;;5009901;28;20041;-66
2023/02/11 07:08:45;;;;;;;49.00;27.42;;;7.10;99.90;;;;;;5008712;28;20041;-66
2023/02/11 07:11:13;;;;;;;42.95;27.20;;;7.10;99.90;;;;;;5009768;28;20038;-65
2023/02/11 07:13:39;;;;;;;43.38;25.52;;;7.10;99.90;;;;;;4992870;28;20054;-66
2023/02/11 07:16:11;;;;;;;39.95;25.17;;;7.10;99.90;;;;;;5009740;28;20034;-66
2023/02/11 07:18:37;;;;;;;41.42;25.85;;;7.10;99.90;;;;;;5009719;28;20050;-66
2023/02/11 07:21:07;;;;;;;42.88;25.05;;;7.10;99.90;;;;;;5009036;28;20073;-66
2023/02/11 07:23:34;;;;;;;40.92;25.35;;;7.10;99.90;;;;;;5008950;28;20038;-66
2023/02/11 07:26:07;;;;;;;43.40;26.27;;;7.10;99.90;;;;;;4991728;28;20084;-66
2023/02/11 07:28:35;;;;;;;36.23;25.97;;;7.10;99.90;;;;;;5008366;28;20045;-66
2023/02/11 07:31:09;;;;;;;40.47;25.23;;;7.20;99.90;;;;;;5012446;28;20052;-66
2023/02/11 07:33:36;;;;;;;42.17;25.10;;;7.20;99.90;;;;;;4995690;28;20053;-66
2023/02/11 07:36:04;;;;;;;42.42;25.90;;;7.20;99.90;;;;;;5013111;28;20463;-66
2023/02/11 07:38:31;;;;;;;43.67;24.95;;;7.20;99.90;;;;;;5010844;28;20125;-66
2023/02/11 07:41:06;;;;;;;37.33;24.60;;;7.30;99.90;;;;;;5012976;28;20041;-66
2023/02/11 07:43:33;;;;;;;44.25;25.10;;;7.30;99.90;;;;;;5013414;28;20413;-65
2023/02/11 07:46:01;;;;;;;39.53;23.75;;;7.30;99.90;;;;;;5013381;28;20065;-66
2023/02/11 07:48:27;;;;;;;39.88;24.52;;;7.30;99.90;;;;;;5013726;28;20045;-66
2023/02/11 07:50:53;;;;;;;37.72;24.20;;;7.30;99.90;;;;;;5012933;28;20046;-66
2023/02/11 07:53:18;;;;;;;41.42;25.10;;;7.40;99.90;;;;;;5013390;28;20072;-66
2023/02/11 07:55:44;;;;;;;39.25;23.20;;;7.40;99.90;;;;;;5013092;28;20064;-66
2023/02/11 07:58:10;;;;;;;38.58;23.90;;;7.40;99.90;;;;;;4995623;28;20053;-66
2023/02/11 08:00:36;;;;;;;44.63;25.45;;;7.40;99.90;;;;;;4993419;28;20038;-66
2023/02/11 08:03:02;;;;;;;48.15;25.25;;;7.40;99.90;;;;;;5013053;28;20038;-66
2023/02/11 08:05:29;;;;;;;36.65;23.85;;;7.50;99.90;;;;;;4994413;28;20108;-66
2023/02/11 08:07:55;;;;;;;44.47;24.95;;;7.40;99.90;;;;;;5013042;28;20121;-66
2023/02/11 08:10:21;;;;;;;39.72;23.92;;;7.50;99.90;;;;;;5003879;28;20565;-66
2023/02/11 08:12:47;;;;;;;37.53;24.60;;;7.50;99.90;;;;;;5013373;28;20441;-66
2023/02/11 08:15:13;;;;;;;35.30;22.85;;;7.50;99.90;;;;;;5012316;28;20041;-66
2023/02/11 08:17:39;;;;;;;40.03;24.00;;;7.50;99.90;;;;;;5013072;28;20048;-66
2023/02/11 08:20:05;;;;;;;40.25;23.73;;;7.60;99.90;;;;;;5011801;28;20026;-66
2023/02/11 08:22:32;;;;;;;34.38;22.20;;;7.60;99.90;;;;;;5013372;28;20071;-66
2023/02/11 08:24:58;;;;;;;36.70;22.48;;;7.60;99.90;;;;;;5011929;28;20046;-66
2023/02/11 08:27:25;;;;;;;37.95;22.25;;;7.60;99.90;;;;;;5013493;28;20034;-66
2023/02/11 08:29:54;;;;;;;33.47;22.35;;;7.70;99.90;;;;;;4978319;28;20057;-66
2023/02/11 08:32:21;;;;;;;41.03;22.70;;;7.80;99.90;;;;;;4995572;28;20371;-66
2023/02/11 08:34:51;;;;;;;32.75;21.58;;;7.70;99.90;;;;;;4994350;28;20115;-66
2023/02/11 08:37:17;;;;;;;33.17;21.35;;;7.80;99.90;;;;;;5013137;28;20133;-66
2023/02/11 08:39:44;;;;;;;34.95;22.42;;;7.80;99.90;;;;;;5012111;28;20038;-66
2023/02/11 08:42:12;;;;;;;32.70;21.75;;;7.80;99.90;;;;;;4993369;28;20515;-66
2023/02/11 08:44:38;;;;;;;32.08;20.92;;;7.80;99.90;;;;;;5012654;28;20045;-66
2023/02/11 08:47:04;;;;;;;36.03;23.88;;;7.80;99.90;;;;;;5012491;28;20585;-66
2023/02/11 08:49:31;;;;;;;34.90;21.63;;;7.90;99.90;;;;;;5010688;28;20076;-66
2023/02/11 08:52:01;;;;;;;37.35;22.00;;;7.90;99.90;;;;;;5011525;28;20089;-66
2023/02/11 08:54:27;;;;;;;34.15;20.77;;;8.00;99.90;;;;;;5011836;28;20104;-66
2023/02/11 08:56:52;;;;;;;34.90;21.23;;;8.10;99.90;;;;;;5011720;28;20398;-66
2023/02/11 08:59:18;;;;;;;32.28;21.63;;;8.10;99.90;;;;;;5011577;28;20029;-66
2023/02/11 09:01:46;;;;;;;28.15;19.70;;;8.20;99.90;;;;;;5011558;28;20084;-66
2023/02/11 09:04:12;;;;;;;33.10;19.38;;;8.30;99.90;;;;;;5012210;28;20133;-66
2023/02/11 09:06:37;;;;;;;32.08;20.25;;;8.50;99.90;;;;;;5011463;28;20117;-66
2023/02/11 09:09:03;;;;;;;28.23;19.60;;;8.80;99.90;;;;;;5010174;28;20050;-66
2023/02/11 09:11:33;;;;;;;32.92;20.10;;;8.80;99.90;;;;;;4993490;28;20047;-66
2023/02/11 09:13:59;;;;;;;29.35;18.35;;;8.90;99.90;;;;;;5011705;28;20509;-66
2023/02/11 09:16:27;;;;;;;27.42;18.95;;;8.90;99.90;;;;;;5010486;28;20080;-67
2023/02/11 09:18:55;;;;;;;29.02;19.25;;;8.90;99.90;;;;;;4993665;28;20042;-66
2023/02/11 09:21:21;;;;;;;27.15;17.33;;;9.00;99.90;;;;;;5010217;28;20045;-67
2023/02/11 09:23:47;;;;;;;25.25;17.40;;;9.20;99.90;;;;;;5010908;28;20046;-67
2023/02/11 09:26:15;;;;;;;28.13;17.58;;;9.30;99.90;;;;;;5010741;28;20122;-67
2023/02/11 09:28:40;;;;;;;23.85;17.83;;;9.40;99.90;;;;;;4994144;28;20045;-67
2023/02/11 09:31:08;;;;;;;30.55;18.27;;;9.40;99.90;;;;;;5010780;28;20038;-67
2023/02/11 09:33:35;;;;;;;24.63;17.45;;;9.40;99.90;;;;;;5008641;28;20068;-67
2023/02/11 09:36:04;;;;;;;28.77;17.30;;;9.40;99.90;;;;;;5010530;28;20397;-67
2023/02/11 09:38:30;;;;;;;32.75;19.10;;;9.50;99.90;;;;;;5010602;28;20124;-67
2023/02/11 09:40:56;;;;;;;29.42;17.67;;;9.40;99.90;;;;;;4992755;28;20125;-67
2023/02/11 09:43:32;;;;;;;30.90;18.50;;;9.40;99.90;;;;;;5011331;28;20045;-67
2023/02/11 09:45:58;;;;;;;30.92;18.25;;;9.30;99.90;;;;;;4992776;28;20069;-67
2023/02/11 09:48:24;;;;;;;24.13;17.33;;;9.20;99.90;;;;;;5011507;28;20089;-67
2023/02/11 09:50:56;;;;;;;26.20;16.42;;;9.20;99.90;;;;;;4992575;28;20680;-67
2023/02/11 09:53:26;;;;;;;20.73;14.73;;;9.10;99.90;;;;;;4988363;28;20283;-67
2023/02/11 09:55:58;;;;;;;25.38;15.93;;;9.10;99.90;;;;;;5010552;28;20042;-67
2023/02/11 09:58:32;;;;;;;24.90;15.75;;;9.10;99.90;;;;;;5010833;28;20046;-67
2023/02/11 10:01:06;;;;;;;26.23;15.55;;;9.10;99.90;;;;;;5008174;28;20041;-67
2023/02/11 10:03:41;;;;;;;;;;;9.10;99.90;;;;;;4993430;28;20049;-67
2023/02/11 10:06:19;;;;;;;22.08;14.20;;;9.10;99.90;;;;;;5010100;28;20278;-67
2023/02/11 10:09:29;;;;;;;24.60;14.55;;;9.10;99.90;;;;;;5008342;28;20081;-67
2023/02/11 10:12:01;;;;;;;20.65;13.60;;;9.10;99.90;;;;;;4948976;28;20387;-67
2023/02/11 10:14:45;;;;;;;21.35;14.75;;;9.20;99.90;;;;;;4949828;29;20602;-67
2023/02/11 10:17:30;;;;;;;23.70;13.60;;;9.20;99.90;;;;;;4970359;28;20033;-67
2023/02/11 10:20:14;;;;;;;20.73;13.75;;;9.20;99.90;;;;;;5009295;28;20034;-67
2023/02/11 10:22:53;;;;;;;23.08;14.00;;;9.20;99.90;;;;;;5005624;28;20037;-67
2023/02/11 10:25:23;;;;;;;18.92;13.20;;;9.30;99.90;;;;;;5010821;28;20034;-67
2023/02/11 10:27:51;;;;;;;21.08;14.13;;;9.30;99.90;;;;;;5009290;28;20042;-67
2023/02/11 10:30:32;;;;;;;23.02;13.35;;;9.30;99.90;;;;;;5010307;28;20041;-67
2023/02/11 10:33:23;;;;;;;22.60;12.35;;;9.40;99.90;;;;;;4992363;28;20088;-67
2023/02/11 10:35:49;;;;;;;24.90;13.30;;;9.50;99.90;;;;;;4991906;28;20127;-67
2023/02/11 10:38:14;;;;;;;22.75;13.65;;;9.60;99.90;;;;;;5009557;28;20096;-68
2023/02/11 10:40:40;;;;;;;23.02;12.85;;;9.70;99.90;;;;;;5009902;28;20030;-67
2023/02/11 10:43:14;;;;;;;21.17;13.15;;;9.70;99.90;;;;;;4991238;28;20120;-65
2023/02/11 10:45:45;;;;;;;21.45;13.77;;;9.80;99.90;;;;;;4992647;28;20076;-68
2023/02/11 10:48:48;;;;;;;19.83;12.07;;;9.80;99.90;;;;;;5009839;28;20037;-65
2023/02/11 10:51:26;;;;;;;19.88;11.35;;;9.90;99.90;;;;;;4991734;28;20076;-65
2023/02/11 10:54:04;;;;;;;18.15;12.00;;;9.90;99.90;;;;;;5009108;28;20061;-66
2023/02/11 10:56:34;;;;;;;17.45;11.27;;;10.00;99.90;;;;;;5009807;28;20042;-66
2023/02/11 10:59:01;;;;;;;15.75;10.32;;;10.00;99.90;;;;;;4992561;28;20466;-66
2023/02/11 11:01:44;;;;;;;17.00;10.27;;;10.00;99.90;;;;;;4991194;28;20045;-66
2023/02/11 11:04:28;;;;;;;18.02;10.05;;;10.00;99.90;;;;;;5009223;28;20042;-66
2023/02/11 11:06:54;;;;;;;16.60;9.10;;;10.00;99.90;;;;;;4991595;28;20042;-66
2023/02/11 11:09:41;;;;;;;11.90;8.60;;;10.10;99.90;;;;;;4991066;28;20042;-66
2023/02/11 11:12:28;;;;;;;21.92;9.18;;;10.10;99.90;;;;;;5008601;28;20053;-66
2023/02/11 11:14:55;;;;;;;14.25;8.27;;;10.10;99.90;;;;;;4991787;28;20084;-66
2023/02/11 11:17:21;;;;;;;16.33;8.88;;;10.10;99.90;;;;;;5008169;28;20108;-66
2023/02/11 11:19:46;;;;;;;18.15;9.45;;;10.10;99.90;;;;;;5008997;28;20038;-66
2023/02/11 11:22:21;;;;;;;15.52;8.85;;;10.00;99.90;;;;;;5009376;28;20099;-67
2023/02/11 11:24:53;;;;;;;16.55;7.35;;;10.10;99.90;;;;;;5009377;28;20041;-67
2023/02/11 11:27:22;;;;;;;17.02;7.97;;;10.10;99.90;;;;;;5009493;28;20042;-67
2023/02/11 11:29:54;;;;;;;11.25;7.35;;;10.30;99.90;;;;;;5009950;28;20044;-67
2023/02/11 11:32:26;;;;;;;15.25;8.48;;;10.40;99.90;;;;;;5009938;28;20125;-67
2023/02/11 11:34:57;;;;;;;15.38;7.45;;;10.60;99.90;;;;;;5009748;28;20379;-67
2023/02/11 11:37:26;;;;;;;14.85;7.53;;;10.70;99.90;;;;;;5010328;28;20045;-67
2023/02/11 11:40:16;;;;;;;15.82;7.35;;;10.70;99.90;;;;;;5009357;28;20030;-67
2023/02/11 11:42:42;;;;;;;10.70;7.13;;;10.90;99.90;;;;;;5009093;28;20041;-67
2023/02/11 11:45:23;;;;;;;16.33;8.23;;;11.00;99.90;;;;;;5007906;28;20044;-67
2023/02/11 11:48:15;;;;;;;14.75;6.88;;;10.90;99.90;;;;;;5009576;28;20037;-67
2023/02/11 11:50:45;;;;;;;14.38;7.05;;;10.80;99.90;;;;;;5008045;28;20045;-67
2023/02/11 11:53:23;;;;;;;15.88;6.57;;;10.70;99.90;;;;;;5009218;28;20049;-67
2023/02/11 11:56:17;;;;;;;15.15;6.78;;;10.50;99.90;;;;;;5008685;28;20385;-67
2023/02/11 11:58:43;;;;;;;12.85;6.32;;;10.40;99.90;;;;;;4991575;28;20037;-67
2023/02/11 12:01:37;;;;;;;18.05;6.65;;;10.40;99.90;;;;;;5008739;28;20045;-67
2023/02/11 12:04:40;;;;;;;17.50;6.40;;;10.40;99.90;;;;;;4990854;28;20056;-67
2023/02/11 12:07:15;;;;;;;15.38;6.88;;;10.30;99.90;;;;;;5008423;28;20042;-67
2023/02/11 12:10:18;;;;;;;16.92;6.60;;;10.30;99.90;;;;;;5008335;28;20041;-67
2023/02/11 12:13:01;;;;;;;12.73;5.95;;;10.30;99.90;;;;;;5008829;28;20037;-67
2023/02/11 12:15:50;;;;;;;11.57;6.22;;;10.20;99.90;;;;;;4991366;28;20054;-67
2023/02/11 12:18:37;;;;;;;10.73;5.60;;;10.30;99.90;;;;;;5012724;28;20096;-67
2023/02/11 12:21:18;;;;;;;15.82;6.40;;;10.30;99.90;;;;;;4992411;28;20093;-67
2023/02/11 12:24:10;;;;;;;12.32;4.95;;;10.30;99.90;;;;;;4994219;28;20046;-67
2023/02/11 12:26:51;;;;;;;10.10;4.65;;;10.30;99.90;;;;;;5012857;28;20033;-67
2023/02/11 12:29:59;;;;;;;13.75;4.63;;;10.40;99.90;;;;;;5012663;28;20068;-67
2023/02/11 12:33:04;;;;;;;10.77;4.63;;;10.40;99.90;;;;;;5011818;28;20478;-67
2023/02/11 12:35:45;;;;;;;10.80;4.70;;;10.40;99.90;;;;;;5012121;28;20066;-67
2023/02/11 12:38:39;;;;;;;13.48;4.55;;;10.50;99.90;;;;;;5012290;28;20045;-66
2023/02/11 12:43:14;;;;;;;13.25;4.40;;;10.50;99.90;;;;;;5012216;28;20262;-66
2023/02/11 12:44:35;;;;;;;11.65;3.92;;;10.50;99.90;;;;;;5010337;28;20053;-65
2023/02/11 12:47:42;;;;;;;8.07;3.72;;;10.50;99.90;;;;;;5006406;28;20046;-65
2023/02/11 12:50:19;;;;;;;15.23;3.92;;;10.60;99.90;;;;;;4998854;28;20156;-66
2023/02/11 12:52:58;;;;;;;10.27;3.58;;;10.60;99.90;;;;;;5010617;28;20054;-65
2023/02/11 12:55:27;;;;;;;8.95;3.13;;;10.70;99.90;;;;;;4994075;28;20136;-65
2023/02/11 12:57:56;;;;;;;8.95;3.10;;;10.80;99.90;;;;;;4994182;28;20520;-65
2023/02/11 13:00:56;;;;;;;11.88;3.22;;;10.80;99.90;;;;;;5012417;28;20077;-65
2023/02/11 13:03:31;;;;;;;13.18;3.42;;;10.80;99.90;;;;;;4992171;28;20128;-65
2023/02/11 13:06:04;;;;;;;10.52;3.00;;;10.80;99.90;;;;;;5009379;28;20045;-65